Time;durP1;ratioP1;P1;durP2;ratioP2;P2;SDS_P1;SDS_P2;PMS_P1;PMS_P2;Temp;Humidity;BMP_temperature;BMP_pressure;BME280_temperature;BME280_humidity;BME280_pressure;Samples;Min_cycle;Max_cycle;Signal;HPM_P1;HPM_P2
2023/01/21 00:01:06;;;;;;;;;10.00;10.00;;;;;7.74;63.95;101715.78;4986544;28;45445;-77
2023/01/21 00:03:32;;;;;;;;;7.75;6.75;;;;;7.60;63.76;101701.84;5017830;28;45529;-79
2023/01/21 00:05:57;;;;;;;;;8.00;8.00;;;;;7.50;63.84;101682.44;4999427;28;48420;-78
2023/01/21 00:08:24;;;;;;;;;9.25;9.25;;;;;7.69;63.66;101717.69;5017372;28;45314;-77
2023/01/21 00:10:49;;;;;;;;;7.50;7.50;;;;;7.52;63.78;101701.97;5015740;28;45348;-77
2023/01/21 00:13:14;;;;;;;;;10.75;7.50;;;;;7.55;64.57;101704.59;5017336;28;45365;-78
2023/01/21 00:15:40;;;;;;;;;8.50;6.75;;;;;7.62;64.20;101717.81;4999009;28;47409;-76
2023/01/21 00:18:05;;;;;;;;;11.25;10.00;;;;;7.55;64.55;101695.72;5017866;28;45551;-77
2023/01/21 00:20:31;;;;;;;;;10.25;8.00;;;;;7.66;64.72;101716.84;5017077;28;45332;-79
2023/01/21 00:22:57;;;;;;;;;5.75;5.50;;;;;7.59;64.56;101702.75;5017232;28;45378;-80
2023/01/21 00:25:22;;;;;;;;;6.50;6.50;;;;;7.68;65.00;101713.25;4998818;28;47204;-76
2023/01/21 00:27:47;;;;;;;;;7.00;7.00;;;;;7.51;64.23;101696.66;5016869;28;45423;-78
2023/01/21 05:31:36;;;;;;;;;27.50;23.75;;;;;6.07;55.26;102099.94;5019797;28;45871;-76
2023/01/21 05:34:02;;;;;;;;;31.25;27.50;;;;;5.80;54.83;102054.81;5016058;28;45647;-78
2023/01/21 05:36:27;;;;;;;;;20.00;19.25;;;;;5.94;54.99;102082.28;5015922;28;45447;-81
2023/01/21 05:38:52;;;;;;;;;34.00;24.25;;;;;5.99;55.02;102100.88;5015844;28;45523;-77
2023/01/21 05:41:18;;;;;;;;;27.00;25.00;;;;;6.09;55.44;102115.91;5015855;28;45381;-77
2023/01/21 05:43:43;;;;;;;;;23.75;22.25;;;;;6.10;55.73;102123.03;5012104;28;45336;-77
2023/01/21 05:46:09;;;;;;;;;29.50;22.75;;;;;6.11;55.27;102124.78;5013087;28;45530;-77
2023/01/21 05:48:34;;;;;;;;;19.75;19.75;;;;;6.10;55.63;102133.66;4998065;28;46078;-76
2023/01/21 05:51:00;;;;;;;;;26.00;22.75;;;;;6.02;55.22;102128.38;5015604;28;45410;-78
2023/01/21 05:53:26;;;;;;;;;24.50;20.75;;;;;6.07;55.69;102137.22;5014561;28;45468;-77
2023/01/21 05:55:55;;;;;;;;;22.25;19.75;;;;;5.98;55.60;102126.63;4997273;28;45528;-77
2023/01/21 05:58:22;;;;;;;;;23.00;20.50;;;;;6.03;55.81;102143.47;5015555;28;45646;-78
2023/01/21 06:00:48;;;;;;;;;27.00;23.50;;;;;5.95;55.81;102150.59;5015284;28;45391;-77
2023/01/21 06:03:17;;;;;;;;;21.00;18.00;;;;;5.83;56.67;102126.66;5015603;28;45392;-77
2023/01/21 06:05:43;;;;;;;;;20.50;18.25;;;;;5.86;56.38;102133.75;5014106;28;45443;-77
2023/01/21 06:08:09;;;;;;;;;33.25;22.75;;;;;5.90;56.37;102132.88;5015352;28;45469;-77
2023/01/21 06:10:35;;;;;;;;;22.00;20.25;;;;;5.96;56.14;102152.34;5015299;28;45984;-77
2023/01/21 06:13:00;;;;;;;;;23.50;21.50;;;;;5.93;56.35;102146.19;4997475;28;45658;-78
2023/01/21 06:15:26;;;;;;;;;21.25;17.75;;;;;5.87;56.23;102148.84;4997468;28;45313;-76
2023/01/21 06:17:52;;;;;;;;;25.00;23.00;;;;;5.93;56.37;102165.69;4997088;28;45990;-77
2023/01/21 06:20:18;;;;;;;;;25.50;22.50;;;;;5.90;56.60;102157.72;5015740;28;46148;-77
2023/01/21 06:22:43;;;;;;;;;22.50;19.25;;;;;5.74;56.32;102137.34;5015158;28;45662;-77
2023/01/21 06:25:09;;;;;;;;;22.50;22.00;;;;;5.93;56.84;102168.34;5014978;28;45379;-77
2023/01/21 06:27:38;;;;;;;;;28.00;25.00;;;;;5.95;56.48;102171.00;4997029;28;46111;-77
2023/01/21 06:30:08;;;;;;;;;28.00;23.00;;;;;5.86;56.86;102160.38;5014597;28;45186;-78
2023/01/21 06:32:34;;;;;;;;;22.00;20.75;;;;;5.92;56.81;102169.25;5014965;28;45337;-77
2023/01/21 06:35:00;;;;;;;;;22.00;18.50;;;;;5.90;56.91;102162.16;5014837;28;45539;-76
2023/01/21 06:37:26;;;;;;;;;22.25;19.75;;;;;5.95;56.94;102177.22;4996741;28;46397;-77
2023/01/21 06:39:51;;;;;;;;;26.50;26.50;;;;;5.94;56.42;102182.56;5014479;28;45460;-76
2023/01/21 06:42:17;;;;;;;;;29.00;26.50;;;;;5.92;56.43;102171.91;5014981;28;45340;-76
2023/01/21 06:44:43;;;;;;;;;26.50;21.50;;;;;5.99;56.40;102183.41;5008908;28;45676;-76
2023/01/21 06:47:09;;;;;;;;;30.75;28.25;;;;;5.95;56.69;102182.56;5014735;28;45423;-77
2023/01/21 06:49:34;;;;;;;;;28.75;26.00;;;;;5.78;56.56;102164.84;4996644;28;48829;-78
2023/01/21 06:52:00;;;;;;;;;28.75;28.75;;;;;5.97;57.09;102198.50;5014728;28;45155;-78
2023/01/21 06:54:25;;;;;;;;;25.50;25.50;;;;;5.76;56.74;102169.28;5014514;28;45498;-77
2023/01/21 06:56:51;;;;;;;;;31.00;26.00;;;;;5.99;56.98;102213.56;5014818;28;45291;-77
2023/01/21 06:59:16;;;;;;;;;35.25;29.25;;;;;5.85;57.07;102185.22;5014503;28;46771;-77
2023/01/21 07:01:42;;;;;;;;;37.00;27.00;;;;;6.00;57.17;102212.69;5014754;28;45211;-77
2023/01/21 07:04:07;;;;;;;;;23.50;21.50;;;;;6.00;56.67;102206.47;5013806;28;45389;-75
2023/01/21 07:06:33;;;;;;;;;32.50;28.75;;;;;6.09;57.18;102214.44;5014886;28;45234;-76
2023/01/21 07:08:58;;;;;;;;;29.50;26.50;;;;;6.03;56.83;102211.81;5013941;28;45348;-76
2023/01/21 07:11:23;;;;;;;;;30.50;23.50;;;;;6.07;56.95;102221.53;5011165;28;45450;-77
2023/01/21 07:13:48;;;;;;;;;26.00;22.25;;;;;6.03;57.26;102220.66;5006513;28;45483;-78
2023/01/21 07:16:14;;;;;;;;;33.00;30.25;;;;;6.07;56.41;102226.84;5012947;28;45554;-76
2023/01/21 07:18:39;;;;;;;;;31.75;29.00;;;;;6.09;56.75;102230.41;5009905;28;45920;-76
2023/01/21 07:21:04;;;;;;;;;43.75;32.75;;;;;6.05;57.00;102234.84;5014336;28;45337;-77
2023/01/21 07:23:31;;;;;;;;;35.25;30.25;;;;;6.01;56.69;102225.09;5014052;28;45332;-78
2023/01/21 07:25:57;;;;;;;;;38.75;30.75;;;;;6.11;56.94;102249.03;5014398;28;45439;-78
2023/01/21 07:28:22;;;;;;;;;37.25;30.75;;;;;6.00;56.93;102241.97;5012733;28;47045;-77
2023/01/21 07:30:48;;;;;;;;;34.50;32.50;;;;;5.89;56.60;102224.25;5005806;28;45507;-76
2023/01/21 07:33:14;;;;;;;;;33.25;27.50;;;;;6.10;56.61;102272.13;5005861;28;45457;-77
2023/01/21 07:35:39;;;;;;;;;35.50;31.75;;;;;5.91;56.52;102242.00;5004992;28;45338;-79
2023/01/21 07:38:05;;;;;;;;;33.00;31.00;;;;;5.99;56.95;102273.91;5014295;28;47836;-78
2023/01/21 07:40:30;;;;;;;;;32.00;28.00;;;;;6.06;56.77;102280.97;5014078;28;45274;-77
2023/01/21 07:42:56;;;;;;;;;34.25;30.75;;;;;5.81;56.98;102240.19;5013624;28;45278;-76
2023/01/21 07:45:21;;;;;;;;;36.75;36.25;;;;;5.83;57.10;102265.03;5006479;28;46616;-76
2023/01/21 07:47:47;;;;;;;;;37.50;36.50;;;;;5.84;57.14;102266.81;5013539;28;45487;-78
2023/01/21 07:50:13;;;;;;;;;35.50;34.00;;;;;5.97;56.68;102294.31;5013372;28;45354;-79
2023/01/21 07:52:38;;;;;;;;;46.25;37.00;;;;;5.87;56.78;102284.56;5013835;28;45448;-78
2023/01/21 07:55:04;;;;;;;;;34.50;29.25;;;;;5.87;57.02;102292.56;5012782;28;45335;-79
2023/01/21 07:57:30;;;;;;;;;42.25;34.75;;;;;5.88;57.46;102292.56;5013815;28;45490;-78
2023/01/21 07:59:55;;;;;;;;;38.50;33.00;;;;;5.95;57.56;102307.66;5014073;28;45403;-77
2023/01/21 08:02:20;;;;;;;;;50.00;39.50;;;;;5.78;56.93;102276.59;5013798;28;45708;-74
2023/01/21 08:04:46;;;;;;;;;38.00;38.00;;;;;5.85;56.64;102295.22;5014018;28;45326;-76
2023/01/21 08:07:11;;;;;;;;;40.50;37.50;;;;;5.93;57.17;102324.50;5013497;28;45461;-77
2023/01/21 08:09:37;;;;;;;;;37.25;36.00;;;;;5.82;56.84;102299.63;5013556;28;45391;-78
2023/01/21 08:12:04;;;;;;;;;38.50;32.00;;;;;5.80;56.47;102306.72;5013671;28;45331;-76
2023/01/21 08:14:30;;;;;;;;;40.50;33.25;;;;;5.89;56.49;102325.38;5014290;28;45529;-79
2023/01/21 08:16:56;;;;;;;;;42.25;36.25;;;;;5.82;56.87;102318.28;5017295;28;45685;-80
2023/01/21 08:19:21;;;;;;;;;41.75;37.75;;;;;5.60;57.11;102299.69;5010721;28;45876;-79
2023/01/21 08:21:47;;;;;;;;;36.50;34.25;;;;;5.85;57.20;102339.56;5013695;28;45914;-85
2023/01/21 08:24:16;;;;;;;;;40.25;35.25;;;;;5.49;57.24;102271.31;4999932;28;46057;-84
2023/01/21 08:26:41;;;;;;;;;36.25;33.50;;;;;5.43;57.50;102266.00;5017726;28;46243;-85
2023/01/21 08:29:07;;;;;;;;;44.50;39.00;;;;;5.52;57.23;102285.50;5017847;28;45357;-83
2023/01/21 08:31:35;;;;;;;;;43.75;38.00;;;;;5.74;57.45;102322.72;5017819;28;45426;-87
2023/01/21 08:34:07;;;;;;;;;46.75;37.50;;;;;5.56;57.14;102297.00;5018547;28;46108;-86
2023/01/21 08:36:32;;;;;;;;;45.25;40.00;;;;;5.56;56.70;102295.22;5017561;28;46185;-79
2023/01/21 08:38:57;;;;;;;;;40.50;34.75;;;;;5.85;56.71;102339.56;5016949;28;45297;-80
2023/01/21 08:41:24;;;;;;;;;30.50;29.50;;;;;5.90;56.69;102360.00;4988389;28;45517;-77
2023/01/21 08:43:49;;;;;;;;;46.50;38.50;;;;;5.80;56.68;102336.88;5009378;28;45462;-81
2023/01/21 08:46:15;;;;;;;;;50.00;33.25;;;;;5.86;56.53;102366.19;5015480;28;46029;-77
2023/01/21 08:48:40;;;;;;;;;43.50;36.25;;;;;5.79;56.50;102364.38;5015373;28;45320;-79
2023/01/21 08:51:05;;;;;;;;;41.25;35.50;;;;;5.80;56.56;102371.50;5016133;28;45556;-76
2023/01/21 08:53:31;;;;;;;;;45.50;38.50;;;;;5.68;57.18;102345.78;5015703;28;45351;-79
2023/01/21 08:56:01;;;;;;;;;47.00;39.00;;;;;5.74;56.97;102363.50;5015093;28;45499;-80
2023/01/21 08:58:28;;;;;;;;;34.50;31.25;;;;;5.64;56.75;102357.31;5014673;28;45549;-79
2023/01/21 09:00:54;;;;;;;;;44.00;38.25;;;;;5.78;57.49;102380.38;5015957;28;45351;-78
2023/01/21 09:03:19;;;;;;;;;33.75;33.50;;;;;5.65;57.00;102360.84;4999252;28;46429;-77
2023/01/21 09:05:45;;;;;;;;;40.50;37.25;;;;;5.74;57.27;102376.81;5013323;28;45443;-76
2023/01/21 09:08:11;;;;;;;;;39.75;38.00;;;;;5.74;56.97;102371.50;5014085;28;45626;-77
2023/01/21 09:13:20;;;;;;;;;49.75;41.25;;;;;5.84;56.64;102381.25;5003303;28;45329;-79
2023/01/21 09:15:45;;;;;;;;;48.50;42.25;;;;;5.85;56.49;102382.16;5016402;28;45937;-76
2023/01/21 09:18:11;;;;;;;;;40.75;38.75;;;;;5.83;56.83;102399.88;5015090;28;45447;-76
2023/01/21 09:20:37;;;;;;;;;51.75;41.00;;;;;5.83;56.22;102398.13;4998383;28;45270;-77
2023/01/21 09:23:22;;;;;;;;;45.00;38.50;;;;;5.78;56.45;102391.91;5015937;28;45171;-76
2023/01/21 09:25:52;;;;;;;;;51.75;39.50;;;;;5.87;56.46;102405.19;5013403;28;45492;-75
2023/01/21 09:28:19;;;;;;;;;47.75;38.25;;;;;5.93;56.37;102412.34;5014349;28;45477;-76
2023/01/21 09:30:45;;;;;;;;;37.00;37.00;;;;;5.92;56.19;102391.94;5016071;28;45420;-76
2023/01/21 09:33:11;;;;;;;;;38.75;37.25;;;;;5.98;56.36;102400.78;5015528;28;45391;-77
2023/01/21 09:35:37;;;;;;;;;51.50;41.50;;;;;6.01;56.10;102402.59;5015227;28;45529;-74
2023/01/21 09:38:02;;;;;;;;;49.00;42.25;;;;;6.08;55.78;102410.56;5014581;28;45341;-76
2023/01/21 09:40:28;;;;;;;;;42.50;39.50;;;;;6.11;55.40;102409.69;5015108;28;45312;-79
2023/01/21 09:42:53;;;;;;;;;46.75;41.25;;;;;6.12;55.52;102407.91;5012109;28;45487;-75
2023/01/21 09:45:20;;;;;;;;;50.50;40.25;;;;;6.11;55.41;102412.34;5007330;28;46162;-75
2023/01/21 09:47:48;;;;;;;;;42.00;37.75;;;;;6.05;55.35;102401.66;5012893;28;45407;-76
2023/01/21 09:50:22;;;;;;;;;45.25;37.75;;;;;6.23;55.05;102424.72;5015036;28;45397;-76
2023/01/21 09:52:51;;;;;;;;;45.00;37.75;;;;;6.23;55.15;102430.06;4997316;28;47032;-76
2023/01/21 09:55:42;;;;;;;;;40.25;34.50;;;;;6.14;54.94;102416.75;5014024;28;45464;-79
2023/01/21 09:58:26;;;;;;;;;43.00;39.00;;;;;6.20;55.04;102438.97;5005568;28;45748;-78
2023/01/21 10:01:21;;;;;;;;;39.50;38.25;;;;;6.00;54.92;102433.63;5018863;28;45237;-78
2023/01/21 10:03:58;;;;;;;;;45.50;41.00;;;;;6.14;55.12;102467.34;5019415;28;45391;-80
2023/01/21 10:06:39;;;;;;;;;44.25;38.75;;;;;6.10;55.53;102477.13;5005619;28;47826;-75
2023/01/21 10:09:23;;;;;;;;;44.75;38.50;;;;;6.10;54.98;102479.78;5022110;28;46286;-77
2023/01/21 10:12:34;;;;;;;;;42.00;39.00;;;;;6.12;55.60;102483.34;4999829;28;45568;-74
2023/01/21 10:15:24;;;;;;;;;42.75;40.75;;;;;6.04;55.27;102472.66;5010456;28;45013;-77
2023/01/21 10:17:57;;;;;;;;;29.75;23.50;;;;;5.92;55.42;102480.66;4996071;28;48526;-77
2023/01/21 10:20:30;;;;;;;;;50.25;39.50;;;;;5.81;55.52;102470.84;4998177;28;45379;-80
2023/01/21 10:23:13;;;;;;;;;46.00;41.25;;;;;5.83;55.52;102472.63;5006796;28;45457;-77
2023/01/21 10:25:39;;;;;;;;;39.75;39.00;;;;;5.85;55.59;102497.47;5004159;28;45793;-79
2023/01/21 10:28:16;;;;;;;;;44.75;38.00;;;;;5.80;56.17;102493.91;4994373;28;47823;-79
2023/01/21 10:30:44;;;;;;;;;48.50;41.50;;;;;5.86;55.71;102498.38;5014796;28;45406;-80
2023/01/21 10:33:20;;;;;;;;;47.25;41.25;;;;;5.88;56.17;102486.84;5014809;28;45552;-81
2023/01/21 10:36:06;;;;;;;;;46.75;35.75;;;;;5.99;55.50;102481.56;5011665;28;45435;-80
2023/01/21 10:38:59;;;;;;;;;50.25;39.00;;;;;5.90;55.55;102458.47;5002597;28;45504;-81
2023/01/21 10:41:43;;;;;;;;;42.50;38.75;;;;;6.11;55.15;102507.31;5015309;28;45484;-79
2023/01/21 10:44:30;;;;;;;;;40.25;31.50;;;;;5.89;55.18;102456.69;5014162;28;45518;-79
2023/01/21 10:47:07;;;;;;;;;48.00;43.50;;;;;6.02;54.93;102468.25;5004864;28;45534;-80
2023/01/21 10:49:36;;;;;;;;;43.25;37.75;;;;;6.13;55.06;102497.53;4996778;28;47209;-80
2023/01/21 10:52:11;;;;;;;;;36.75;36.50;;;;;6.11;55.32;102483.34;5015025;28;45222;-79
2023/01/21 10:55:21;;;;;;;;;47.25;38.50;;;;;6.25;55.44;102493.09;4997661;28;45519;-78
2023/01/21 10:57:56;;;;;;;;;48.00;39.00;;;;;6.37;54.81;102494.88;4985330;28;45521;-80
2023/01/21 11:00:28;;;;;;;;;38.75;37.25;;;;;6.29;54.19;102470.03;4997595;28;46557;-83
2023/01/21 11:02:58;;;;;;;;;39.00;36.00;;;;;6.40;54.34;102490.41;4996840;28;45356;-79
2023/01/21 11:05:25;;;;;;;;;38.50;34.00;;;;;6.38;53.51;102491.34;5014748;28;45478;-80
2023/01/21 11:07:52;;;;;;;;;31.50;28.00;;;;;6.34;53.45;102466.47;5013897;28;46018;-85
2023/01/21 11:10:26;;;;;;;;;38.00;32.50;;;;;6.58;53.40;102500.16;5013216;28;47334;-80
2023/01/21 11:12:55;;;;;;;;;42.25;38.50;;;;;6.45;53.82;102462.00;5010904;28;45214;-80
2023/01/21 11:15:22;;;;;;;;;39.50;37.25;;;;;6.65;53.04;102471.72;5014361;28;45259;-81
2023/01/21 11:17:52;;;;;;;;;32.75;28.75;;;;;6.79;53.00;102467.28;5013817;28;45516;-79
2023/01/21 11:20:22;;;;;;;;;44.50;35.00;;;;;6.87;53.18;102460.13;5014248;28;45508;-80
2023/01/21 11:22:49;;;;;;;;;38.00;32.75;;;;;7.07;52.27;102490.25;4996468;28;45448;-77
2023/01/21 11:25:25;;;;;;;;;30.25;26.25;;;;;7.13;52.36;102495.59;4995707;28;45522;-77
2023/01/21 11:27:51;;;;;;;;;40.25;35.25;;;;;7.19;52.29;102495.56;5014536;28;45409;-78
2023/01/21 11:30:33;;;;;;;;;38.25;33.50;;;;;7.08;52.39;102461.81;5014754;28;46118;-79
2023/01/21 11:33:31;;;;;;;;;37.50;32.50;;;;;7.54;51.90;102489.19;5014799;28;45388;-78
2023/01/21 11:36:09;;;;;;;;;36.25;32.00;;;;;7.78;50.86;102482.78;4964559;28;45546;-78
2023/01/21 11:38:35;;;;;;;;;34.00;32.00;;;;;8.19;50.22;102469.13;5016338;28;45518;-78
2023/01/21 11:41:20;;;;;;;;;35.50;33.00;;;;;9.01;49.01;102471.91;5016270;28;46054;-75
2023/01/21 11:43:54;;;;;;;;;43.00;38.00;;;;;9.57;47.50;102466.69;5009765;28;45472;-78
2023/01/21 11:46:34;;;;;;;;;34.75;33.25;;;;;10.31;46.78;102478.94;5005001;28;45455;-75
2023/01/21 11:49:06;;;;;;;;;40.25;32.75;;;;;10.94;44.69;102474.19;5004040;28;45349;-75
2023/01/21 11:51:31;;;;;;;;;35.75;31.50;;;;;11.42;43.83;102463.34;5004947;28;46484;-75
2023/01/21 11:54:06;;;;;;;;;35.50;34.50;;;;;11.94;42.56;102468.44;5013602;28;45577;-76
2023/01/21 11:56:31;;;;;;;;;32.00;29.50;;;;;12.33;40.90;102457.63;5017733;28;45384;-77
2023/01/21 11:58:56;;;;;;;;;30.75;30.75;;;;;12.37;40.63;102465.56;5016991;28;45596;-75
2023/01/21 12:01:22;;;;;;;;;29.00;27.00;;;;;12.21;41.44;102468.66;5015636;28;45606;-74
2023/01/21 12:03:52;;;;;;;;;30.00;25.75;;;;;12.13;40.68;102472.44;5017036;28;45353;-76
2023/01/21 12:06:24;;;;;;;;;35.75;26.00;;;;;11.95;40.49;102477.38;5017078;28;45348;-77
2023/01/21 12:08:53;;;;;;;;;34.50;27.50;;;;;11.61;41.50;102477.25;5016559;28;45522;-72
2023/01/21 12:11:25;;;;;;;;;32.00;29.25;;;;;11.27;41.77;102469.94;5016937;28;45645;-75
2023/01/21 12:14:22;;;;;;;;;32.75;27.25;;;;;10.94;42.49;102470.63;5016913;28;45273;-77
2023/01/21 12:17:33;;;;;;;;;35.00;28.25;;;;;10.49;43.25;102475.94;5017120;28;45564;-82
2023/01/21 12:20:27;;;;;;;;;33.75;26.50;;;;;10.12;43.96;102456.88;4988486;28;45337;-82
2023/01/21 12:23:26;;;;;;;;;33.75;29.75;;;;;9.87;44.03;102460.88;5017295;28;45471;-81
2023/01/21 12:25:58;;;;;;;;;29.25;26.75;;;;;9.75;44.70;102469.09;4998852;28;45540;-78
2023/01/21 12:28:42;;;;;;;;;28.00;25.25;;;;;9.61;45.22;102471.13;5017295;28;45265;-77
2023/01/21 12:31:28;;;;;;;;;28.50;24.25;;;;;9.44;45.39;102458.81;5017045;28;45489;-77
2023/01/21 12:34:16;;;;;;;;;33.00;25.75;;;;;9.28;45.52;102467.06;5017020;28;46230;-78
2023/01/21 12:36:51;;;;;;;;;25.25;23.50;;;;;9.04;45.80;102449.53;5008362;28;45561;-80
2023/01/21 12:39:35;;;;;;;;;29.75;26.75;;;;;8.94;45.57;102462.13;5018388;28;45451;-88
2023/01/21 12:42:03;;;;;;;;;21.00;20.25;;;;;8.78;46.58;102457.88;5000816;28;46271;-80
2023/01/21 12:45:05;;;;;;;;;34.75;30.00;;;;;8.65;46.47;102449.13;4999483;28;46222;-86
2023/01/21 12:48:02;;;;;;;;;30.00;27.75;;;;;8.55;46.95;102441.22;5011284;28;45660;-77
2023/01/21 12:50:53;;;;;;;;;30.00;27.25;;;;;8.41;47.35;102433.34;4998994;28;45573;-79
2023/01/21 12:54:03;;;;;;;;;34.00;29.00;;;;;8.35;47.21;102444.06;5016224;28;45473;-79
2023/01/21 12:56:31;;;;;;;;;32.75;26.50;;;;;8.26;47.90;102438.78;5010076;28;45573;-77
2023/01/21 12:59:41;;;;;;;;;30.50;28.75;;;;;8.24;48.00;102441.50;5016550;28;45394;-74
2023/01/21 13:02:31;;;;;;;;;33.75;31.25;;;;;8.17;47.85;102433.50;4989396;28;45320;-77
2023/01/21 13:05:06;;;;;;;;;31.50;26.25;;;;;8.02;48.65;102436.31;5017049;28;45487;-75
2023/01/21 13:07:50;;;;;;;;;33.00;26.00;;;;;8.11;48.30;102447.81;5010928;28;45499;-74
2023/01/21 13:10:21;;;;;;;;;28.50;25.00;;;;;8.09;47.98;102454.06;5013775;28;45389;-76
2023/01/21 13:13:01;;;;;;;;;27.50;25.50;;;;;7.92;48.44;102424.81;5012056;28;46182;-79
2023/01/21 13:15:33;;;;;;;;;36.25;28.75;;;;;8.01;48.22;102447.91;5016858;28;45499;-77
2023/01/21 13:18:04;;;;;;;;;25.25;25.00;;;;;8.03;48.35;102449.66;4995310;28;48151;-77
2023/01/21 13:20:37;;;;;;;;;29.50;26.75;;;;;8.12;48.43;102460.28;5026741;28;45534;-76
2023/01/21 13:23:02;;;;;;;;;35.00;33.25;;;;;8.19;48.75;102459.31;5017268;28;45503;-76
2023/01/21 13:25:45;;;;;;;;;41.25;34.75;;;;;8.17;48.18;102452.22;5014674;28;45491;-78
2023/01/21 13:28:38;;;;;;;;;41.50;35.50;;;;;8.20;48.40;102462.88;5013936;28;46095;-78
2023/01/21 13:31:11;;;;;;;;;38.50;32.00;;;;;8.11;48.45;102433.56;5014630;28;45471;-77
2023/01/21 13:34:00;;;;;;;;;36.50;30.25;;;;;8.19;48.93;102445.97;5017427;28;45256;-77
2023/01/21 13:36:50;;;;;;;;;44.00;35.25;;;;;8.33;48.52;102460.13;5017402;28;45367;-79
2023/01/21 13:39:21;;;;;;;;;47.25;33.25;;;;;8.34;47.96;102452.97;5013743;28;46151;-76
2023/01/21 13:42:19;;;;;;;;;32.50;25.25;;;;;8.35;48.11;102461.00;5012897;28;45547;-78
2023/01/21 13:45:02;;;;;;;;;41.25;35.25;;;;;8.37;47.74;102462.75;5007874;28;45397;-77
2023/01/21 13:47:49;;;;;;;;;30.50;30.50;;;;;8.36;48.27;102467.22;5013776;28;45407;-77
2023/01/21 13:50:30;;;;;;;;;32.25;28.75;;;;;8.37;47.93;102466.31;4997101;28;46401;-76
2023/01/21 13:53:17;;;;;;;;;35.00;29.50;;;;;8.41;47.94;102459.19;5014081;28;45518;-77
2023/01/21 13:56:09;;;;;;;;;35.75;31.75;;;;;8.40;47.75;102473.44;5011671;28;45471;-77
2023/01/21 13:58:39;;;;;;;;;32.25;28.00;;;;;8.40;47.53;102477.00;5020104;28;45561;-76
2023/01/21 14:01:12;;;;;;;;;39.25;31.25;;;;;8.32;47.18;102470.84;5020113;28;46310;-77
2023/01/21 14:03:48;;;;;;;;;39.75;27.50;;;;;8.26;47.75;102471.72;5020866;28;45321;-76
2023/01/21 14:06:17;;;;;;;;;31.00;28.75;;;;;8.15;48.01;102467.41;5014746;28;45309;-77
2023/01/21 14:08:51;;;;;;;;;33.00;30.00;;;;;8.19;48.03;102480.69;5014039;28;45238;-76
2023/01/21 14:11:33;;;;;;;;;33.50;31.00;;;;;8.15;48.21;102464.72;5005986;28;46180;-76
2023/01/21 14:14:09;;;;;;;;;31.25;28.00;;;;;8.16;47.85;102466.50;5007245;28;45390;-77
2023/01/21 14:17:01;;;;;;;;;29.00;24.00;;;;;8.17;48.11;102482.50;5016106;28;45340;-77
2023/01/21 14:19:45;;;;;;;;;36.00;28.25;;;;;8.15;47.45;102478.06;5013968;28;45386;-78
2023/01/21 14:22:23;;;;;;;;;46.00;35.00;;;;;8.16;48.46;102478.06;5014349;28;46028;-77
2023/01/21 14:24:58;;;;;;;;;40.00;32.00;;;;;8.25;48.23;102479.78;5014866;28;45438;-78
2023/01/21 14:27:41;;;;;;;;;28.25;23.25;;;;;8.61;47.61;102483.91;5014501;28;45424;-77
2023/01/21 14:30:16;;;;;;;;;36.50;33.00;;;;;9.14;46.84;102486.00;5020535;28;45585;-76
2023/01/21 14:32:54;;;;;;;;;54.00;41.75;;;;;9.57;45.62;102474.72;5014055;28;46320;-75
2023/01/21 14:35:44;;;;;;;;;38.50;35.50;;;;;10.14;44.94;102479.19;5014798;28;45744;-77
2023/01/21 14:38:18;;;;;;;;;46.00;39.50;;;;;10.63;44.55;102479.25;4998169;28;45425;-77
2023/01/21 14:40:48;;;;;;;;;36.00;33.00;;;;;10.97;43.37;102463.38;5007849;28;45341;-78
2023/01/21 14:43:31;;;;;;;;;32.25;29.00;;;;;11.44;42.10;102468.66;4996055;28;48363;-74
2023/01/21 14:45:59;;;;;;;;;32.75;28.25;;;;;11.61;41.79;102463.81;5012698;28;45478;-78
2023/01/21 14:48:30;;;;;;;;;29.50;28.25;;;;;11.96;41.59;102473.78;5015102;28;45369;-77
2023/01/21 14:51:10;;;;;;;;;36.50;29.25;;;;;12.02;41.29;102466.44;5014793;28;46837;-75
2023/01/21 14:53:50;;;;;;;;;38.00;30.75;;;;;12.21;41.04;102468.66;5014536;28;46535;-75
2023/01/21 14:56:33;;;;;;;;;27.50;22.25;;;;;12.42;39.36;102490.50;5013221;28;45487;-78
2023/01/21 14:59:20;;;;;;;;;52.75;39.50;;;;;12.39;39.14;102466.41;5014550;28;45503;-75
2023/01/21 15:01:47;;;;;;;;;39.00;33.50;;;;;12.58;38.17;102488.34;5014352;28;45499;-73
2023/01/21 15:04:34;;;;;;;;;62.75;48.00;;;;;12.46;37.93;102469.81;5014248;28;45273;-78
2023/01/21 15:07:12;;;;;;;;;35.25;29.50;;;;;12.36;38.83;102488.00;4984959;28;45455;-79
2023/01/21 15:09:45;;;;;;;;;30.00;24.75;;;;;12.28;38.52;102489.09;5009996;28;45643;-74
2023/01/21 15:12:18;;;;;;;;;26.75;24.50;;;;;12.19;38.33;102494.72;5009910;28;45640;-76
2023/01/21 15:14:47;;;;;;;;;29.00;24.00;;;;;12.13;38.86;102493.06;5014892;28;45336;-75
2023/01/21 15:17:43;;;;;;;;;26.50;25.50;;;;;12.17;39.25;102501.91;5014599;28;45422;-80
2023/01/21 15:20:42;;;;;;;;;26.25;21.75;;;;;12.12;38.90;102502.94;5011933;28;45594;-76
2023/01/21 15:23:20;;;;;;;;;23.75;23.75;;;;;11.99;39.44;102498.75;5013537;28;45364;-76
2023/01/21 15:26:11;;;;;;;;;27.25;25.25;;;;;11.84;39.62;102507.19;5013904;28;46343;-78
2023/01/21 15:28:48;;;;;;;;;25.00;24.75;;;;;11.61;39.61;102499.63;5014624;28;45376;-77
2023/01/21 15:31:19;;;;;;;;;25.50;19.75;;;;;11.40;40.23;102501.91;5009089;28;45410;-74
2023/01/21 15:33:52;;;;;;;;;19.75;17.75;;;;;11.12;40.67;102498.91;5014458;28;45222;-76
2023/01/21 15:36:28;;;;;;;;;23.50;23.50;;;;;11.03;40.37;102517.84;5013844;28;46213;-73
2023/01/21 15:38:59;;;;;;;;;26.50;24.25;;;;;10.60;40.84;102478.44;5014122;28;45338;-74
2023/01/21 15:41:36;;;;;;;;;26.00;23.50;;;;;10.60;40.76;102524.91;5014441;28;45469;-74
2023/01/21 15:44:23;;;;;;;;;27.00;23.75;;;;;10.38;41.16;102522.63;5007875;28;45486;-76
2023/01/21 15:47:16;;;;;;;;;24.00;21.00;;;;;10.20;41.70;102531.84;5003547;28;46385;-76
2023/01/21 15:50:00;;;;;;;;;26.25;23.75;;;;;9.98;42.08;102536.59;5013798;28;45385;-76
2023/01/21 15:53:03;;;;;;;;;26.25;21.75;;;;;9.63;42.34;102504.09;5013878;28;45259;-76
2023/01/21 15:55:31;;;;;;;;;24.00;21.00;;;;;9.61;42.85;102540.72;5013140;28;45366;-76
2023/01/21 15:58:07;;;;;;;;;21.00;21.00;;;;;9.40;42.91;102528.50;5013907;28;46049;-76
2023/01/21 16:00:36;;;;;;;;;26.50;22.25;;;;;9.27;43.11;102533.09;5014106;28;45550;-75
2023/01/21 16:03:26;;;;;;;;;25.75;23.75;;;;;9.20;42.88;102538.53;5014108;28;45425;-76
2023/01/21 16:06:00;;;;;;;;;25.50;22.75;;;;;9.08;43.09;102539.59;5013518;28;45329;-75
2023/01/21 16:09:03;;;;;;;;;33.00;25.25;;;;;8.98;46.30;102549.50;5013575;28;46491;-80
2023/01/21 16:11:41;;;;;;;;;24.00;22.25;;;;;8.95;48.17;102546.84;4996114;28;45985;-77
2023/01/21 16:14:39;;;;;;;;;31.75;29.50;;;;;8.87;45.30;102553.16;5014273;28;45432;-75
2023/01/21 16:17:33;;;;;;;;;37.75;32.25;;;;;8.76;43.80;102555.09;5013587;28;45523;-75
2023/01/21 16:20:00;;;;;;;;;56.25;44.25;;;;;8.69;46.57;102544.44;5010607;28;46724;-78
2023/01/21 16:22:32;;;;;;;;;77.67;56.33;;;;;8.53;44.64;102537.44;5013599;28;45459;-78
2023/01/21 16:25:06;;;;;;;;;97.67;77.33;;;;;8.62;44.92;102568.56;5013287;28;45376;-80
2023/01/21 16:27:32;;;;;;;;;40.25;36.75;;;;;8.62;47.09;102566.78;4995994;28;46369;-78
2023/01/21 16:30:11;;;;;;;;;28.25;26.50;;;;;8.53;44.53;102571.31;4995402;28;47072;-79
2023/01/21 16:32:36;;;;;;;;;68.67;54.00;;;;;8.44;44.99;102572.28;5014194;28;45460;-77
2023/01/21 16:35:02;;;;;;;;;29.75;27.50;;;;;8.39;44.57;102568.75;5013764;28;45297;-78
2023/01/21 16:37:30;;;;;;;;;55.00;40.50;;;;;8.37;45.29;102569.66;5014592;28;45510;-83
2023/01/21 16:40:05;;;;;;;;;36.50;30.00;;;;;8.18;45.14;102545.72;5016924;28;46080;-78
2023/01/21 16:42:36;;;;;;;;;34.75;32.00;;;;;8.32;45.14;102569.72;5017104;28;45397;-80
2023/01/21 16:45:15;;;;;;;;;45.50;36.50;;;;;7.90;45.10;102517.44;5009235;28;45467;-81
2023/01/21 16:47:41;;;;;;;;;44.50;38.75;;;;;8.08;45.46;102545.81;5016796;28;45507;-80
2023/01/21 16:50:25;;;;;;;;;65.00;48.75;;;;;8.17;45.10;102586.69;5017030;28;45374;-79